sensor_id;sensor_type;location;lat;lon;timestamp;temperature;humidity
44723;DHT22;30451;48.638;10.624;2023-04-25T00:02:02;23.30;48.20
44723;DHT22;30451;48.638;10.624;2023-04-25T00:04:28;23.20;48.20
44723;DHT22;30451;48.638;10.624;2023-04-25T00:06:55;23.20;48.10
44723;DHT22;30451;48.638;10.624;2023-04-25T00:09:21;23.20;48.10
44723;DHT22;30451;48.638;10.624;2023-04-25T00:11:47;23.20;48.20
44723;DHT22;30451;48.638;10.624;2023-04-25T00:14:14;23.20;48.20
44723;DHT22;30451;48.638;10.624;2023-04-25T00:16:39;23.20;48.20
44723;DHT22;30451;48.638;10.624;2023-04-25T00:19:06;23.10;48.20
44723;DHT22;30451;48.638;10.624;2023-04-25T00:21:33;23.20;48.20
44723;DHT22;30451;48.638;10.624;2023-04-25T00:23:59;23.20;48.20
44723;DHT22;30451;48.638;10.624;2023-04-25T00:26:25;23.10;48.20
44723;DHT22;30451;48.638;10.624;2023-04-25T00:28:51;23.10;48.20
44723;DHT22;30451;48.638;10.624;2023-04-25T00:31:16;23.10;48.20
44723;DHT22;30451;48.638;10.624;2023-04-25T00:33:42;23.10;48.20
44723;DHT22;30451;48.638;10.624;2023-04-25T00:36:08;23.00;48.20
44723;DHT22;30451;48.638;10.624;2023-04-25T00:38:34;23.10;48.20
44723;DHT22;30451;48.638;10.624;2023-04-25T00:41:00;23.10;48.30
44723;DHT22;30451;48.638;10.624;2023-04-25T00:43:26;23.00;48.20
44723;DHT22;30451;48.638;10.624;2023-04-25T00:45:52;23.00;48.20
44723;DHT22;30451;48.638;10.624;2023-04-25T00:48:21;23.00;48.20
44723;DHT22;30451;48.638;10.624;2023-04-25T00:50:55;23.00;48.30
44723;DHT22;30451;48.638;10.624;2023-04-25T00:53:23;23.00;48.20
44723;DHT22;30451;48.638;10.624;2023-04-25T00:55:49;23.00;48.30
44723;DHT22;30451;48.638;10.624;2023-04-25T00:58:17;23.00;48.30
44723;DHT22;30451;48.638;10.624;2023-04-25T01:00:44;22.90;48.30
44723;DHT22;30451;48.638;10.624;2023-04-25T01:03:10;23.00;48.30
44723;DHT22;30451;48.638;10.624;2023-04-25T01:05:37;22.90;48.30
44723;DHT22;30451;48.638;10.624;2023-04-25T01:08:02;22.90;48.30
44723;DHT22;30451;48.638;10.624;2023-04-25T01:10:28;22.90;48.30
44723;DHT22;30451;48.638;10.624;2023-04-25T01:12:54;22.90;48.30
44723;DHT22;30451;48.638;10.624;2023-04-25T01:15:20;22.90;48.30
44723;DHT22;30451;48.638;10.624;2023-04-25T01:17:45;22.90;48.40
44723;DHT22;30451;48.638;10.624;2023-04-25T01:20:12;22.90;48.30
44723;DHT22;30451;48.638;10.624;2023-04-25T01:22:39;22.90;48.40
44723;DHT22;30451;48.638;10.624;2023-04-25T01:25:05;22.90;48.40
44723;DHT22;30451;48.638;10.624;2023-04-25T01:27:32;22.90;48.40
44723;DHT22;30451;48.638;10.624;2023-04-25T01:29:58;22.80;48.30
44723;DHT22;30451;48.638;10.624;2023-04-25T01:32:25;22.80;48.40
44723;DHT22;30451;48.638;10.624;2023-04-25T01:34:52;22.80;48.40
44723;DHT22;30451;48.638;10.624;2023-04-25T01:37:18;22.80;48.40
44723;DHT22;30451;48.638;10.624;2023-04-25T01:39:44;22.70;48.30
44723;DHT22;30451;48.638;10.624;2023-04-25T01:42:10;22.80;48.40
44723;DHT22;30451;48.638;10.624;2023-04-25T01:44:36;22.70;48.40
44723;DHT22;30451;48.638;10.624;2023-04-25T01:47:01;22.70;48.40
44723;DHT22;30451;48.638;10.624;2023-04-25T01:49:27;22.70;48.40
44723;DHT22;30451;48.638;10.624;2023-04-25T01:51:52;22.70;48.40
44723;DHT22;30451;48.638;10.624;2023-04-25T01:54:18;22.70;48.40
44723;DHT22;30451;48.638;10.624;2023-04-25T01:56:50;22.70;48.40
44723;DHT22;30451;48.638;10.624;2023-04-25T01:59:16;22.70;48.40
44723;DHT22;30451;48.638;10.624;2023-04-25T02:01:41;22.70;48.40
44723;DHT22;30451;48.638;10.624;2023-04-25T02:04:07;22.70;48.40
44723;DHT22;30451;48.638;10.624;2023-04-25T02:06:32;22.70;48.50
44723;DHT22;30451;48.638;10.624;2023-04-25T02:08:58;22.70;48.40
44723;DHT22;30451;48.638;10.624;2023-04-25T02:11:24;22.60;48.40
44723;DHT22;30451;48.638;10.624;2023-04-25T02:13:49;22.60;48.40
44723;DHT22;30451;48.638;10.624;2023-04-25T02:16:15;22.60;48.40
44723;DHT22;30451;48.638;10.624;2023-04-25T02:18:40;22.60;48.40
44723;DHT22;30451;48.638;10.624;2023-04-25T02:21:06;22.60;48.40
44723;DHT22;30451;48.638;10.624;2023-04-25T02:23:32;22.60;48.40
44723;DHT22;30451;48.638;10.624;2023-04-25T02:25:57;22.60;48.40
44723;DHT22;30451;48.638;10.624;2023-04-25T02:28:24;22.60;48.40
44723;DHT22;30451;48.638;10.624;2023-04-25T02:30:51;22.60;48.40
44723;DHT22;30451;48.638;10.624;2023-04-25T02:33:16;22.60;48.50
44723;DHT22;30451;48.638;10.624;2023-04-25T02:35:42;22.60;48.40
44723;DHT22;30451;48.638;10.624;2023-04-25T02:38:08;22.60;48.50
44723;DHT22;30451;48.638;10.624;2023-04-25T02:40:33;22.60;48.50
44723;DHT22;30451;48.638;10.624;2023-04-25T02:42:59;22.60;48.50
44723;DHT22;30451;48.638;10.624;2023-04-25T02:45:24;22.50;48.40
44723;DHT22;30451;48.638;10.624;2023-04-25T02:47:50;22.50;48.40
44723;DHT22;30451;48.638;10.624;2023-04-25T02:50:15;22.50;49.00
44723;DHT22;30451;48.638;10.624;2023-04-25T02:52:41;22.50;48.50
44723;DHT22;30451;48.638;10.624;2023-04-25T02:55:07;22.50;48.50
44723;DHT22;30451;48.638;10.624;2023-04-25T02:57:33;22.50;48.50
44723;DHT22;30451;48.638;10.624;2023-04-25T02:59:58;22.50;48.50
44723;DHT22;30451;48.638;10.624;2023-04-25T03:02:24;22.50;48.50
44723;DHT22;30451;48.638;10.624;2023-04-25T03:04:49;22.50;48.50
44723;DHT22;30451;48.638;10.624;2023-04-25T03:07:15;22.50;48.50
44723;DHT22;30451;48.638;10.624;2023-04-25T03:09:41;22.50;48.60
44723;DHT22;30451;48.638;10.624;2023-04-25T03:12:06;22.40;48.50
44723;DHT22;30451;48.638;10.624;2023-04-25T03:14:33;22.40;48.60
44723;DHT22;30451;48.638;10.624;2023-04-25T03:16:58;22.40;48.50
44723;DHT22;30451;48.638;10.624;2023-04-25T03:19:24;22.40;48.60
44723;DHT22;30451;48.638;10.624;2023-04-25T03:21:49;22.40;48.60
44723;DHT22;30451;48.638;10.624;2023-04-25T03:24:15;22.40;48.60
44723;DHT22;30451;48.638;10.624;2023-04-25T03:26:40;22.40;48.60
44723;DHT22;30451;48.638;10.624;2023-04-25T03:29:06;22.40;49.10
44723;DHT22;30451;48.638;10.624;2023-04-25T03:31:31;22.40;48.70
44723;DHT22;30451;48.638;10.624;2023-04-25T03:33:57;22.40;48.70
44723;DHT22;30451;48.638;10.624;2023-04-25T03:36:22;22.40;48.70
44723;DHT22;30451;48.638;10.624;2023-04-25T03:38:48;22.30;48.70
44723;DHT22;30451;48.638;10.624;2023-04-25T03:41:14;22.40;48.80
44723;DHT22;30451;48.638;10.624;2023-04-25T03:43:39;22.40;49.30
44723;DHT22;30451;48.638;10.624;2023-04-25T03:46:05;22.30;48.70
44723;DHT22;30451;48.638;10.624;2023-04-25T03:48:30;22.30;48.70
44723;DHT22;30451;48.638;10.624;2023-04-25T03:50:56;22.30;48.70
44723;DHT22;30451;48.638;10.624;2023-04-25T03:53:22;22.30;48.80
44723;DHT22;30451;48.638;10.624;2023-04-25T03:55:47;22.30;48.80
44723;DHT22;30451;48.638;10.624;2023-04-25T03:58:13;22.30;48.90
44723;DHT22;30451;48.638;10.624;2023-04-25T04:00:38;22.30;48.90
44723;DHT22;30451;48.638;10.624;2023-04-25T04:03:04;22.30;48.90
44723;DHT22;30451;48.638;10.624;2023-04-25T04:05:30;22.30;48.90
44723;DHT22;30451;48.638;10.624;2023-04-25T04:07:56;22.30;48.90
44723;DHT22;30451;48.638;10.624;2023-04-25T04:10:22;22.30;48.90
44723;DHT22;30451;48.638;10.624;2023-04-25T04:12:47;22.20;48.80
44723;DHT22;30451;48.638;10.624;2023-04-25T04:15:13;22.20;48.90
44723;DHT22;30451;48.638;10.624;2023-04-25T04:17:39;22.20;48.80
44723;DHT22;30451;48.638;10.624;2023-04-25T04:20:05;22.20;48.80
44723;DHT22;30451;48.638;10.624;2023-04-25T04:22:31;22.20;48.80
44723;DHT22;30451;48.638;10.624;2023-04-25T04:24:57;22.20;48.80
44723;DHT22;30451;48.638;10.624;2023-04-25T04:27:23;22.20;48.70
44723;DHT22;30451;48.638;10.624;2023-04-25T04:29:49;22.20;48.70
44723;DHT22;30451;48.638;10.624;2023-04-25T04:32:16;22.20;48.70
44723;DHT22;30451;48.638;10.624;2023-04-25T04:34:42;22.20;48.70
44723;DHT22;30451;48.638;10.624;2023-04-25T04:37:08;22.20;48.70
44723;DHT22;30451;48.638;10.624;2023-04-25T04:39:35;22.20;48.70
44723;DHT22;30451;48.638;10.624;2023-04-25T04:42:01;22.20;48.70
44723;DHT22;30451;48.638;10.624;2023-04-25T04:44:30;22.20;48.80
44723;DHT22;30451;48.638;10.624;2023-04-25T04:46:58;22.20;48.80
44723;DHT22;30451;48.638;10.624;2023-04-25T04:49:24;22.20;48.80
44723;DHT22;30451;48.638;10.624;2023-04-25T04:51:49;22.20;48.80
44723;DHT22;30451;48.638;10.624;2023-04-25T04:54:15;22.10;48.80
44723;DHT22;30451;48.638;10.624;2023-04-25T04:56:40;22.10;48.80
44723;DHT22;30451;48.638;10.624;2023-04-25T04:59:07;22.10;48.80
44723;DHT22;30451;48.638;10.624;2023-04-25T05:01:32;22.10;48.80
44723;DHT22;30451;48.638;10.624;2023-04-25T05:04:00;22.10;48.80
44723;DHT22;30451;48.638;10.624;2023-04-25T05:06:29;22.10;48.80
44723;DHT22;30451;48.638;10.624;2023-04-25T05:08:56;22.10;48.90
44723;DHT22;30451;48.638;10.624;2023-04-25T05:11:23;22.10;48.90
44723;DHT22;30451;48.638;10.624;2023-04-25T05:13:53;22.10;48.90
44723;DHT22;30451;48.638;10.624;2023-04-25T05:16:18;22.10;49.50
44723;DHT22;30451;48.638;10.624;2023-04-25T05:18:45;22.10;49.00
44723;DHT22;30451;48.638;10.624;2023-04-25T05:21:11;22.10;49.00
44723;DHT22;30451;48.638;10.624;2023-04-25T05:23:36;22.10;49.00
44723;DHT22;30451;48.638;10.624;2023-04-25T05:26:02;22.10;49.10
44723;DHT22;30451;48.638;10.624;2023-04-25T05:28:27;22.10;49.10
44723;DHT22;30451;48.638;10.624;2023-04-25T05:30:53;22.10;49.10
44723;DHT22;30451;48.638;10.624;2023-04-25T05:33:19;22.10;49.10
44723;DHT22;30451;48.638;10.624;2023-04-25T05:35:45;22.10;49.20
44723;DHT22;30451;48.638;10.624;2023-04-25T05:38:11;22.10;49.10
44723;DHT22;30451;48.638;10.624;2023-04-25T05:40:37;22.10;49.20
44723;DHT22;30451;48.638;10.624;2023-04-25T05:43:03;22.10;49.70
44723;DHT22;30451;48.638;10.624;2023-04-25T05:45:28;22.00;49.10
44723;DHT22;30451;48.638;10.624;2023-04-25T05:47:54;22.10;49.20
44723;DHT22;30451;48.638;10.624;2023-04-25T05:50:19;22.00;49.20
44723;DHT22;30451;48.638;10.624;2023-04-25T05:52:45;22.00;49.20
44723;DHT22;30451;48.638;10.624;2023-04-25T05:55:11;22.00;49.20
44723;DHT22;30451;48.638;10.624;2023-04-25T05:57:36;22.10;49.30
44723;DHT22;30451;48.638;10.624;2023-04-25T06:00:02;22.00;49.20
44723;DHT22;30451;48.638;10.624;2023-04-25T06:02:29;22.00;49.20
44723;DHT22;30451;48.638;10.624;2023-04-25T06:04:55;22.00;49.20
44723;DHT22;30451;48.638;10.624;2023-04-25T06:07:20;22.10;49.30
44723;DHT22;30451;48.638;10.624;2023-04-25T06:09:46;22.10;49.30
44723;DHT22;30451;48.638;10.624;2023-04-25T06:12:11;22.00;49.20
44723;DHT22;30451;48.638;10.624;2023-04-25T06:14:37;22.00;49.20
44723;DHT22;30451;48.638;10.624;2023-04-25T06:17:03;22.10;49.20
44723;DHT22;30451;48.638;10.624;2023-04-25T06:19:33;22.10;49.20
44723;DHT22;30451;48.638;10.624;2023-04-25T06:21:59;22.10;49.10
44723;DHT22;30451;48.638;10.624;2023-04-25T06:24:25;22.10;49.10
44723;DHT22;30451;48.638;10.624;2023-04-25T06:26:50;22.10;49.10
44723;DHT22;30451;48.638;10.624;2023-04-25T06:29:16;22.10;49.10
44723;DHT22;30451;48.638;10.624;2023-04-25T06:31:42;22.10;49.10
44723;DHT22;30451;48.638;10.624;2023-04-25T06:34:07;22.00;49.10
44723;DHT22;30451;48.638;10.624;2023-04-25T06:36:33;22.10;49.10
44723;DHT22;30451;48.638;10.624;2023-04-25T06:38:58;22.00;49.10
44723;DHT22;30451;48.638;10.624;2023-04-25T06:41:24;22.00;49.10
44723;DHT22;30451;48.638;10.624;2023-04-25T06:43:50;22.00;49.10
44723;DHT22;30451;48.638;10.624;2023-04-25T06:46:15;22.00;49.10
44723;DHT22;30451;48.638;10.624;2023-04-25T06:48:41;22.00;49.20
44723;DHT22;30451;48.638;10.624;2023-04-25T06:51:06;22.00;49.10
44723;DHT22;30451;48.638;10.624;2023-04-25T06:53:32;22.00;49.20
44723;DHT22;30451;48.638;10.624;2023-04-25T06:55:57;22.00;49.10
44723;DHT22;30451;48.638;10.624;2023-04-25T06:58:23;22.00;49.10
44723;DHT22;30451;48.638;10.624;2023-04-25T07:00:49;22.10;49.20
44723;DHT22;30451;48.638;10.624;2023-04-25T07:03:14;22.00;49.10
44723;DHT22;30451;48.638;10.624;2023-04-25T07:05:40;22.00;49.20
44723;DHT22;30451;48.638;10.624;2023-04-25T07:08:05;22.00;49.10
44723;DHT22;30451;48.638;10.624;2023-04-25T07:10:31;22.00;49.10
44723;DHT22;30451;48.638;10.624;2023-04-25T07:12:57;22.00;49.20
44723;DHT22;30451;48.638;10.624;2023-04-25T07:15:22;22.00;49.20
44723;DHT22;30451;48.638;10.624;2023-04-25T07:17:48;22.00;49.20
44723;DHT22;30451;48.638;10.624;2023-04-25T07:20:13;22.00;49.20
44723;DHT22;30451;48.638;10.624;2023-04-25T07:22:39;22.00;49.20
44723;DHT22;30451;48.638;10.624;2023-04-25T07:25:05;22.00;49.70
44723;DHT22;30451;48.638;10.624;2023-04-25T07:27:31;22.00;49.20
44723;DHT22;30451;48.638;10.624;2023-04-25T07:29:57;22.00;49.20
44723;DHT22;30451;48.638;10.624;2023-04-25T07:32:22;22.00;49.20
44723;DHT22;30451;48.638;10.624;2023-04-25T07:34:48;22.00;49.20
44723;DHT22;30451;48.638;10.624;2023-04-25T07:37:14;22.00;49.20
44723;DHT22;30451;48.638;10.624;2023-04-25T07:39:40;22.00;49.20
44723;DHT22;30451;48.638;10.624;2023-04-25T07:42:06;22.00;49.20
44723;DHT22;30451;48.638;10.624;2023-04-25T07:44:34;22.00;49.20
44723;DHT22;30451;48.638;10.624;2023-04-25T07:47:05;22.00;49.20
44723;DHT22;30451;48.638;10.624;2023-04-25T07:49:33;22.10;49.20
44723;DHT22;30451;48.638;10.624;2023-04-25T07:51:59;22.10;49.10
44723;DHT22;30451;48.638;10.624;2023-04-25T07:54:24;22.10;49.10
44723;DHT22;30451;48.638;10.624;2023-04-25T07:56:50;22.10;49.10
44723;DHT22;30451;48.638;10.624;2023-04-25T07:59:16;22.10;49.10
44723;DHT22;30451;48.638;10.624;2023-04-25T08:01:41;22.10;49.10
44723;DHT22;30451;48.638;10.624;2023-04-25T08:04:07;22.10;49.20
44723;DHT22;30451;48.638;10.624;2023-04-25T08:06:32;22.10;49.20
44723;DHT22;30451;48.638;10.624;2023-04-25T08:08:58;22.10;49.20
44723;DHT22;30451;48.638;10.624;2023-04-25T08:11:24;22.10;49.30
44723;DHT22;30451;48.638;10.624;2023-04-25T08:13:50;22.10;49.20
44723;DHT22;30451;48.638;10.624;2023-04-25T08:16:16;22.10;49.30
44723;DHT22;30451;48.638;10.624;2023-04-25T08:18:41;22.10;49.30
44723;DHT22;30451;48.638;10.624;2023-04-25T08:21:07;22.10;49.30
44723;DHT22;30451;48.638;10.624;2023-04-25T08:23:34;22.10;49.40
44723;DHT22;30451;48.638;10.624;2023-04-25T08:26:00;22.10;49.40
44723;DHT22;30451;48.638;10.624;2023-04-25T08:28:25;22.10;49.40
44723;DHT22;30451;48.638;10.624;2023-04-25T08:30:51;22.10;49.40
44723;DHT22;30451;48.638;10.624;2023-04-25T08:33:16;22.10;49.40
44723;DHT22;30451;48.638;10.624;2023-04-25T08:35:43;22.10;49.40
44723;DHT22;30451;48.638;10.624;2023-04-25T08:38:09;22.10;49.50
44723;DHT22;30451;48.638;10.624;2023-04-25T08:40:38;22.10;49.50
44723;DHT22;30451;48.638;10.624;2023-04-25T08:43:06;22.10;49.50
44723;DHT22;30451;48.638;10.624;2023-04-25T08:45:40;22.10;49.90
44723;DHT22;30451;48.638;10.624;2023-04-25T08:48:10;22.10;49.40
44723;DHT22;30451;48.638;10.624;2023-04-25T08:50:47;22.20;49.50
44723;DHT22;30451;48.638;10.624;2023-04-25T08:53:16;22.10;49.40
44723;DHT22;30451;48.638;10.624;2023-04-25T08:55:45;22.20;49.40
44723;DHT22;30451;48.638;10.624;2023-04-25T08:58:11;22.20;49.40
44723;DHT22;30451;48.638;10.624;2023-04-25T09:00:37;22.20;49.40
44723;DHT22;30451;48.638;10.624;2023-04-25T09:03:03;22.20;49.50
44723;DHT22;30451;48.638;10.624;2023-04-25T09:05:29;22.20;49.50
44723;DHT22;30451;48.638;10.624;2023-04-25T09:07:55;22.20;49.40
44723;DHT22;30451;48.638;10.624;2023-04-25T09:10:22;22.20;49.40
44723;DHT22;30451;48.638;10.624;2023-04-25T09:13:07;22.20;49.40
44723;DHT22;30451;48.638;10.624;2023-04-25T09:15:51;22.20;49.40
44723;DHT22;30451;48.638;10.624;2023-04-25T09:20:52;22.20;49.40
44723;DHT22;30451;48.638;10.624;2023-04-25T09:23:19;22.20;49.40
44723;DHT22;30451;48.638;10.624;2023-04-25T09:25:51;22.20;49.40
44723;DHT22;30451;48.638;10.624;2023-04-25T09:28:23;22.20;49.40
44723;DHT22;30451;48.638;10.624;2023-04-25T09:30:55;22.20;49.40
44723;DHT22;30451;48.638;10.624;2023-04-25T09:33:30;22.20;49.40
44723;DHT22;30451;48.638;10.624;2023-04-25T09:36:07;22.20;49.40
44723;DHT22;30451;48.638;10.624;2023-04-25T09:38:53;22.20;49.40
44723;DHT22;30451;48.638;10.624;2023-04-25T09:41:23;22.20;49.40
44723;DHT22;30451;48.638;10.624;2023-04-25T09:43:49;22.20;49.30
44723;DHT22;30451;48.638;10.624;2023-04-25T09:46:16;22.20;49.30
44723;DHT22;30451;48.638;10.624;2023-04-25T09:48:50;22.20;49.30
44723;DHT22;30451;48.638;10.624;2023-04-25T09:51:16;22.20;49.30
44723;DHT22;30451;48.638;10.624;2023-04-25T09:53:44;22.20;49.40
44723;DHT22;30451;48.638;10.624;2023-04-25T09:56:11;22.20;49.30
44723;DHT22;30451;48.638;10.624;2023-04-25T09:58:39;22.20;49.40
44723;DHT22;30451;48.638;10.624;2023-04-25T10:01:07;22.20;49.40
44723;DHT22;30451;48.638;10.624;2023-04-25T10:03:34;22.20;49.30
44723;DHT22;30451;48.638;10.624;2023-04-25T10:06:02;22.20;49.30
44723;DHT22;30451;48.638;10.624;2023-04-25T10:08:34;22.20;49.40
44723;DHT22;30451;48.638;10.624;2023-04-25T10:11:02;22.20;49.40
44723;DHT22;30451;48.638;10.624;2023-04-25T10:13:29;22.20;49.40
44723;DHT22;30451;48.638;10.624;2023-04-25T10:16:00;22.20;49.30
44723;DHT22;30451;48.638;10.624;2023-04-25T10:18:27;22.20;49.40
44723;DHT22;30451;48.638;10.624;2023-04-25T10:20:59;22.20;49.40
44723;DHT22;30451;48.638;10.624;2023-04-25T10:23:25;22.20;49.40
44723;DHT22;30451;48.638;10.624;2023-04-25T10:25:52;22.20;49.30
44723;DHT22;30451;48.638;10.624;2023-04-25T10:28:18;22.20;49.30
44723;DHT22;30451;48.638;10.624;2023-04-25T10:31:03;22.20;49.30
44723;DHT22;30451;48.638;10.624;2023-04-25T10:33:35;22.20;49.30
44723;DHT22;30451;48.638;10.624;2023-04-25T10:36:15;22.20;49.30
44723;DHT22;30451;48.638;10.624;2023-04-25T10:38:43;22.20;49.30
44723;DHT22;30451;48.638;10.624;2023-04-25T10:41:10;22.20;49.30
44723;DHT22;30451;48.638;10.624;2023-04-25T10:43:43;22.30;49.40
44723;DHT22;30451;48.638;10.624;2023-04-25T10:46:17;22.30;49.40
44723;DHT22;30451;48.638;10.624;2023-04-25T10:48:48;22.20;49.30
44723;DHT22;30451;48.638;10.624;2023-04-25T10:51:26;22.20;49.30
44723;DHT22;30451;48.638;10.624;2023-04-25T10:56:41;22.30;49.40
44723;DHT22;30451;48.638;10.624;2023-04-25T11:01:39;22.30;49.40
44723;DHT22;30451;48.638;10.624;2023-04-25T11:04:05;22.20;49.30
44723;DHT22;30451;48.638;10.624;2023-04-25T11:09:15;22.30;49.40
44723;DHT22;30451;48.638;10.624;2023-04-25T11:11:41;22.20;49.30
44723;DHT22;30451;48.638;10.624;2023-04-25T11:14:07;22.30;49.30
44723;DHT22;30451;48.638;10.624;2023-04-25T11:16:32;22.30;49.30
44723;DHT22;30451;48.638;10.624;2023-04-25T11:18:58;22.30;49.30
44723;DHT22;30451;48.638;10.624;2023-04-25T11:21:27;22.30;49.30
44723;DHT22;30451;48.638;10.624;2023-04-25T11:23:57;22.20;49.20
44723;DHT22;30451;48.638;10.624;2023-04-25T11:26:24;22.30;49.10
44723;DHT22;30451;48.638;10.624;2023-04-25T11:28:50;22.30;49.20
44723;DHT22;30451;48.638;10.624;2023-04-25T11:31:16;22.20;49.10
44723;DHT22;30451;48.638;10.624;2023-04-25T11:33:45;22.20;49.10
44723;DHT22;30451;48.638;10.624;2023-04-25T11:36:11;22.30;49.20
44723;DHT22;30451;48.638;10.624;2023-04-25T11:38:37;22.30;49.20
44723;DHT22;30451;48.638;10.624;2023-04-25T11:41:03;22.20;49.10
44723;DHT22;30451;48.638;10.624;2023-04-25T11:43:28;22.20;49.20
44723;DHT22;30451;48.638;10.624;2023-04-25T11:45:54;22.30;49.20
44723;DHT22;30451;48.638;10.624;2023-04-25T11:48:19;22.30;49.20
44723;DHT22;30451;48.638;10.624;2023-04-25T11:50:45;22.20;49.10
44723;DHT22;30451;48.638;10.624;2023-04-25T11:53:11;22.30;49.10
44723;DHT22;30451;48.638;10.624;2023-04-25T11:55:37;22.30;49.20
44723;DHT22;30451;48.638;10.624;2023-04-25T11:58:03;22.30;49.20
44723;DHT22;30451;48.638;10.624;2023-04-25T12:00:30;22.30;49.20
44723;DHT22;30451;48.638;10.624;2023-04-25T12:02:57;22.30;49.20
44723;DHT22;30451;48.638;10.624;2023-04-25T12:05:29;22.30;49.20
44723;DHT22;30451;48.638;10.624;2023-04-25T12:07:56;22.30;49.20
44723;DHT22;30451;48.638;10.624;2023-04-25T12:10:21;22.30;49.20
44723;DHT22;30451;48.638;10.624;2023-04-25T12:12:49;22.30;49.20
44723;DHT22;30451;48.638;10.624;2023-04-25T12:15:26;22.30;49.30
44723;DHT22;30451;48.638;10.624;2023-04-25T12:17:53;22.30;49.40
44723;DHT22;30451;48.638;10.624;2023-04-25T12:20:23;22.30;49.40
44723;DHT22;30451;48.638;10.624;2023-04-25T12:22:49;22.30;49.40
44723;DHT22;30451;48.638;10.624;2023-04-25T12:25:43;22.30;49.40
44723;DHT22;30451;48.638;10.624;2023-04-25T12:28:18;22.30;49.50
44723;DHT22;30451;48.638;10.624;2023-04-25T12:31:07;22.30;49.40
44723;DHT22;30451;48.638;10.624;2023-04-25T12:33:36;22.30;49.40
44723;DHT22;30451;48.638;10.624;2023-04-25T12:36:04;22.30;49.30
44723;DHT22;30451;48.638;10.624;2023-04-25T12:38:41;22.30;49.20
44723;DHT22;30451;48.638;10.624;2023-04-25T12:41:07;22.30;49.20
44723;DHT22;30451;48.638;10.624;2023-04-25T12:43:33;22.30;49.20
44723;DHT22;30451;48.638;10.624;2023-04-25T12:46:00;22.30;49.10
44723;DHT22;30451;48.638;10.624;2023-04-25T12:48:25;22.30;49.10
44723;DHT22;30451;48.638;10.624;2023-04-25T12:50:51;22.30;49.10
44723;DHT22;30451;48.638;10.624;2023-04-25T12:53:18;22.30;49.10
44723;DHT22;30451;48.638;10.624;2023-04-25T12:55:44;22.30;49.10
44723;DHT22;30451;48.638;10.624;2023-04-25T12:58:12;22.20;49.00
44723;DHT22;30451;48.638;10.624;2023-04-25T13:00:38;22.30;49.10
44723;DHT22;30451;48.638;10.624;2023-04-25T13:03:04;22.30;49.10
44723;DHT22;30451;48.638;10.624;2023-04-25T13:05:30;22.30;49.10
44723;DHT22;30451;48.638;10.624;2023-04-25T13:07:56;22.30;49.50
44723;DHT22;30451;48.638;10.624;2023-04-25T13:10:22;22.30;49.10
44723;DHT22;30451;48.638;10.624;2023-04-25T13:12:47;22.20;49.00
44723;DHT22;30451;48.638;10.624;2023-04-25T13:15:13;22.30;49.10
44723;DHT22;30451;48.638;10.624;2023-04-25T13:17:41;22.30;49.10
44723;DHT22;30451;48.638;10.624;2023-04-25T13:20:08;22.30;49.10
44723;DHT22;30451;48.638;10.624;2023-04-25T13:22:38;22.30;49.10
44723;DHT22;30451;48.638;10.624;2023-04-25T13:25:06;22.30;49.10
44723;DHT22;30451;48.638;10.624;2023-04-25T13:27:32;22.30;49.10
44723;DHT22;30451;48.638;10.624;2023-04-25T13:30:00;22.30;49.10
44723;DHT22;30451;48.638;10.624;2023-04-25T13:32:26;22.30;49.00
44723;DHT22;30451;48.638;10.624;2023-04-25T13:34:52;22.30;49.00
44723;DHT22;30451;48.638;10.624;2023-04-25T13:37:18;22.30;49.00
44723;DHT22;30451;48.638;10.624;2023-04-25T13:39:44;22.30;49.00
44723;DHT22;30451;48.638;10.624;2023-04-25T13:42:09;22.30;49.00
44723;DHT22;30451;48.638;10.624;2023-04-25T13:44:36;22.30;49.10
44723;DHT22;30451;48.638;10.624;2023-04-25T13:47:01;22.30;49.00
44723;DHT22;30451;48.638;10.624;2023-04-25T13:49:27;22.30;49.00
44723;DHT22;30451;48.638;10.624;2023-04-25T13:51:53;22.30;49.10
44723;DHT22;30451;48.638;10.624;2023-04-25T13:54:18;22.30;49.00
44723;DHT22;30451;48.638;10.624;2023-04-25T13:56:44;22.30;49.00
44723;DHT22;30451;48.638;10.624;2023-04-25T13:59:09;22.30;49.00
44723;DHT22;30451;48.638;10.624;2023-04-25T14:01:35;22.30;49.20
44723;DHT22;30451;48.638;10.624;2023-04-25T14:04:02;22.30;49.00
44723;DHT22;30451;48.638;10.624;2023-04-25T14:06:29;22.30;49.00
44723;DHT22;30451;48.638;10.624;2023-04-25T14:08:55;22.30;49.00
44723;DHT22;30451;48.638;10.624;2023-04-25T14:11:21;22.30;49.00
44723;DHT22;30451;48.638;10.624;2023-04-25T14:13:47;22.30;49.00
44723;DHT22;30451;48.638;10.624;2023-04-25T14:16:15;22.30;49.00
44723;DHT22;30451;48.638;10.624;2023-04-25T14:18:41;22.30;48.90
44723;DHT22;30451;48.638;10.624;2023-04-25T14:21:06;22.30;49.00
44723;DHT22;30451;48.638;10.624;2023-04-25T14:23:32;22.30;48.90
44723;DHT22;30451;48.638;10.624;2023-04-25T14:25:57;22.30;48.90
44723;DHT22;30451;48.638;10.624;2023-04-25T14:28:23;22.30;48.90
44723;DHT22;30451;48.638;10.624;2023-04-25T14:30:49;22.30;48.90
44723;DHT22;30451;48.638;10.624;2023-04-25T14:33:14;22.30;48.90
44723;DHT22;30451;48.638;10.624;2023-04-25T14:35:40;22.30;48.90
44723;DHT22;30451;48.638;10.624;2023-04-25T14:38:06;22.30;48.90
44723;DHT22;30451;48.638;10.624;2023-04-25T14:40:33;22.30;48.90
44723;DHT22;30451;48.638;10.624;2023-04-25T14:42:58;22.30;48.90
44723;DHT22;30451;48.638;10.624;2023-04-25T14:45:24;22.30;48.90
44723;DHT22;30451;48.638;10.624;2023-04-25T14:47:50;22.30;48.90
44723;DHT22;30451;48.638;10.624;2023-04-25T14:50:17;22.30;48.90
44723;DHT22;30451;48.638;10.624;2023-04-25T14:52:42;22.30;48.90
44723;DHT22;30451;48.638;10.624;2023-04-25T14:55:09;22.40;48.90
44723;DHT22;30451;48.638;10.624;2023-04-25T14:57:35;22.30;48.90
44723;DHT22;30451;48.638;10.624;2023-04-25T15:00:01;22.30;48.90
44723;DHT22;30451;48.638;10.624;2023-04-25T15:02:27;22.30;48.90
44723;DHT22;30451;48.638;10.624;2023-04-25T15:04:54;22.30;48.90
44723;DHT22;30451;48.638;10.624;2023-04-25T15:07:21;22.30;48.90
44723;DHT22;30451;48.638;10.624;2023-04-25T15:09:47;22.30;48.90
44723;DHT22;30451;48.638;10.624;2023-04-25T15:12:13;22.30;48.90
44723;DHT22;30451;48.638;10.624;2023-04-25T15:14:39;22.30;48.90
44723;DHT22;30451;48.638;10.624;2023-04-25T15:17:05;22.30;48.90
44723;DHT22;30451;48.638;10.624;2023-04-25T15:19:30;22.30;48.90
44723;DHT22;30451;48.638;10.624;2023-04-25T15:21:56;22.30;48.90
44723;DHT22;30451;48.638;10.624;2023-04-25T15:24:22;22.30;48.90